createdAt,value
2023-02-17T00:01:37.267Z,10.60
2023-02-17T00:04:05.722Z,12.50
2023-02-17T00:06:33.736Z,12.73
2023-02-17T00:09:02.053Z,10.90
2023-02-17T00:11:31.697Z,13.53
2023-02-17T00:14:00.201Z,11.80
2023-02-17T00:16:30.135Z,12.57
2023-02-17T00:19:00.846Z,14.73
2023-02-17T00:21:31.789Z,13.77
2023-02-17T00:24:01.013Z,12.33
2023-02-17T00:26:30.648Z,12.57
2023-02-17T00:28:59.655Z,12.23
2023-02-17T00:31:27.785Z,13.00
2023-02-17T00:33:56.906Z,12.67
2023-02-17T00:36:26.331Z,11.50
2023-02-17T00:38:56.733Z,12.00
2023-02-17T00:41:26.108Z,11.33
2023-02-17T00:43:55.624Z,13.30
2023-02-17T00:46:24.702Z,12.50
2023-02-17T00:48:53.839Z,12.10
2023-02-17T00:51:21.860Z,13.00
2023-02-17T00:53:50.252Z,10.43
2023-02-17T00:56:18.296Z,13.33
2023-02-17T00:58:47.224Z,12.97
2023-02-17T01:01:16.620Z,11.37
2023-02-17T01:03:44.620Z,12.63
2023-02-17T01:06:20.193Z,11.53
2023-02-17T01:08:48.191Z,13.43
2023-02-17T01:11:19.331Z,12.57
2023-02-17T01:13:47.525Z,12.63
2023-02-17T01:16:24.387Z,13.60
2023-02-17T01:18:52.718Z,12.87
2023-02-17T01:21:23.839Z,11.70
2023-02-17T01:23:52.890Z,11.70
2023-02-17T01:26:23.840Z,12.77
2023-02-17T01:28:53.678Z,10.80
2023-02-17T01:31:24.293Z,12.50
2023-02-17T01:33:52.338Z,11.60
2023-02-17T01:36:20.929Z,9.40
2023-02-17T01:38:51.438Z,11.10
2023-02-17T01:41:23.246Z,10.30
2023-02-17T01:44:13.432Z,9.93
2023-02-17T01:46:44.508Z,10.53
2023-02-17T01:49:32.568Z,10.73
2023-02-17T01:52:08.324Z,8.97
2023-02-17T01:54:42.681Z,9.70
2023-02-17T01:57:12.308Z,9.53
2023-02-17T01:59:41.509Z,8.30
2023-02-17T02:02:11.094Z,9.40
2023-02-17T02:04:42.317Z,9.10
2023-02-17T02:07:17.164Z,9.20
2023-02-17T02:09:51.885Z,8.00
2023-02-17T02:12:23.435Z,8.60
2023-02-17T02:14:53.294Z,7.63
2023-02-17T02:17:34.819Z,8.80
2023-02-17T02:20:39.470Z,7.90
2023-02-17T02:23:52.273Z,6.77
2023-02-17T02:27:25.778Z,7.93
2023-02-17T02:30:35.926Z,8.10
2023-02-17T02:33:15.011Z,7.17
2023-02-17T02:35:55.278Z,7.00
2023-02-17T02:38:29.801Z,7.67
2023-02-17T02:41:04.086Z,7.50
2023-02-17T02:43:33.063Z,6.90
2023-02-17T02:46:01.118Z,7.57
2023-02-17T02:48:30.890Z,6.63
2023-02-17T02:51:28.507Z,6.80
2023-02-17T02:54:22.992Z,7.27
2023-02-17T02:57:28.774Z,6.60
2023-02-17T03:00:12.724Z,7.07
2023-02-17T03:02:52.490Z,6.40
2023-02-17T03:05:29.932Z,7.40
2023-02-17T03:08:04.045Z,8.40
2023-02-17T03:10:32.121Z,6.50
2023-02-17T03:13:02.537Z,7.57
2023-02-17T03:15:34.520Z,5.57
2023-02-17T03:18:04.171Z,6.93
2023-02-17T03:20:37.823Z,6.90
2023-02-17T03:23:07.646Z,6.70
2023-02-17T03:25:35.916Z,6.97
2023-02-17T03:28:04.150Z,6.53
2023-02-17T03:30:32.239Z,6.97
2023-02-17T03:33:00.314Z,6.90
2023-02-17T03:35:28.327Z,6.20
2023-02-17T03:37:57.725Z,7.60
2023-02-17T03:40:26.076Z,6.90
2023-02-17T03:42:54.142Z,7.00
2023-02-17T03:45:22.136Z,7.50
2023-02-17T03:47:50.264Z,6.53
2023-02-17T03:50:18.627Z,6.60
2023-02-17T03:52:47.255Z,8.30
2023-02-17T03:55:16.698Z,6.77
2023-02-17T03:57:44.650Z,7.17
2023-02-17T04:00:13.869Z,7.37
2023-02-17T04:02:44.082Z,8.47
2023-02-17T04:05:12.547Z,7.43
2023-02-17T04:07:40.600Z,7.40
2023-02-17T04:10:09.831Z,8.07
2023-02-17T04:12:39.330Z,7.10
2023-02-17T04:15:08.213Z,8.23
2023-02-17T04:17:38.168Z,7.80
2023-02-17T04:20:08.096Z,7.70
2023-02-17T04:22:36.116Z,7.30
2023-02-17T04:25:04.188Z,7.67
2023-02-17T04:27:32.241Z,7.03
2023-02-17T04:30:01.662Z,7.13
2023-02-17T04:32:29.674Z,6.60
2023-02-17T04:34:57.689Z,6.53
2023-02-17T04:37:25.667Z,6.70
2023-02-17T04:39:53.660Z,6.57
2023-02-17T04:42:21.644Z,6.60
2023-02-17T04:44:49.663Z,6.83
2023-02-17T04:47:18.999Z,7.50
2023-02-17T04:49:46.937Z,6.70
2023-02-17T04:52:14.934Z,6.57
2023-02-17T04:54:42.988Z,6.70
2023-02-17T04:57:10.986Z,6.93
2023-02-17T04:59:39.236Z,5.90
2023-02-17T05:02:08.261Z,6.50
2023-02-17T05:04:37.789Z,7.23
2023-02-17T05:07:05.809Z,7.00
2023-02-17T05:09:33.948Z,6.00
2023-02-17T05:12:03.055Z,6.27
2023-02-17T05:14:31.064Z,6.10
2023-02-17T05:16:59.078Z,6.60
2023-02-17T05:19:27.109Z,6.17
2023-02-17T05:21:56.600Z,6.70
2023-02-17T05:24:24.612Z,6.57
2023-02-17T05:26:52.575Z,4.47
2023-02-17T05:29:20.629Z,5.97
2023-02-17T05:31:48.735Z,5.20
2023-02-17T05:34:16.841Z,5.63
2023-02-17T05:36:44.825Z,5.60
2023-02-17T05:39:14.122Z,5.10
2023-02-17T05:41:42.400Z,5.10
2023-02-17T05:44:10.401Z,5.90
2023-02-17T05:46:38.434Z,5.23
2023-02-17T05:49:06.491Z,5.90
2023-02-17T05:51:34.611Z,5.33
2023-02-17T05:54:02.840Z,5.00
2023-02-17T05:56:32.245Z,5.60
2023-02-17T05:59:01.024Z,4.97
2023-02-17T06:01:29.662Z,4.80
2023-02-17T06:03:57.681Z,5.07
2023-02-17T06:06:25.951Z,5.40
2023-02-17T06:08:54.009Z,4.00
2023-02-17T06:11:22.055Z,4.77
2023-02-17T06:13:51.384Z,4.20
2023-02-17T06:16:19.518Z,3.70
2023-02-17T06:18:47.612Z,3.73
2023-02-17T06:21:15.579Z,4.10
2023-02-17T06:23:43.515Z,3.80
2023-02-17T06:26:12.499Z,4.13
2023-02-17T06:28:40.488Z,3.13
2023-02-17T06:31:09.960Z,3.87
2023-02-17T06:33:38.020Z,3.37
2023-02-17T06:36:07.842Z,2.90
2023-02-17T06:38:36.022Z,3.13
2023-02-17T06:41:04.141Z,3.30
2023-02-17T06:43:32.139Z,3.40
2023-02-17T06:46:00.200Z,2.97
2023-02-17T06:48:32.948Z,3.17
2023-02-17T06:51:02.085Z,2.83
2023-02-17T06:53:30.164Z,2.80
2023-02-17T06:55:58.181Z,2.87
2023-02-17T06:58:26.255Z,3.27
2023-02-17T07:00:54.300Z,3.40
2023-02-17T07:03:22.271Z,2.93
2023-02-17T07:05:51.912Z,3.30
2023-02-17T07:08:19.910Z,3.20
2023-02-17T07:10:47.934Z,2.70
2023-02-17T07:13:15.928Z,2.90
2023-02-17T07:15:43.981Z,2.73
2023-02-17T07:18:11.934Z,3.30
2023-02-17T07:20:39.974Z,2.83
2023-02-17T07:23:09.407Z,3.37
2023-02-17T07:25:37.382Z,2.63
2023-02-17T07:28:05.890Z,2.80
2023-02-17T07:30:33.949Z,4.00
2023-02-17T07:33:01.953Z,3.03
2023-02-17T07:35:29.926Z,4.50
2023-02-17T07:37:59.230Z,3.20
2023-02-17T07:40:29.268Z,2.93
2023-02-17T07:42:58.645Z,2.80
2023-02-17T07:45:26.653Z,3.37
2023-02-17T07:47:54.833Z,2.27
2023-02-17T07:50:22.920Z,3.00
2023-02-17T07:52:52.039Z,2.57
2023-02-17T07:55:20.131Z,3.00
2023-02-17T07:57:49.452Z,3.80
2023-02-17T08:00:19.182Z,4.27
2023-02-17T08:02:47.322Z,3.83
2023-02-17T08:05:15.388Z,3.50
2023-02-17T08:07:43.347Z,3.00
2023-02-17T08:10:31.452Z,2.50
2023-02-17T08:13:20.487Z,3.83
2023-02-17T08:15:48.426Z,4.73
2023-02-17T08:18:16.393Z,3.40
2023-02-17T08:20:44.522Z,3.77
2023-02-17T08:23:12.698Z,3.30
2023-02-17T08:25:40.801Z,2.93
2023-02-17T08:28:12.507Z,3.40
2023-02-17T08:30:40.729Z,2.93
2023-02-17T08:33:09.428Z,3.13
2023-02-17T08:35:37.409Z,4.13
2023-02-17T08:38:05.451Z,4.17
2023-02-17T08:40:33.510Z,4.57
2023-02-17T08:43:03.501Z,3.33
2023-02-17T08:45:33.138Z,5.07
2023-02-17T08:48:01.191Z,2.87
2023-02-17T08:50:29.410Z,4.00
2023-02-17T08:52:57.549Z,3.80
2023-02-17T08:55:25.747Z,3.33
2023-02-17T08:57:54.829Z,3.83
2023-02-17T09:00:23.253Z,4.00
2023-02-17T09:02:53.296Z,4.10
2023-02-17T09:05:21.810Z,4.10
2023-02-17T09:07:52.958Z,3.50
2023-02-17T09:10:20.979Z,3.70
2023-02-17T09:12:48.968Z,3.70
2023-02-17T09:15:17.017Z,4.00
2023-02-17T09:17:45.610Z,4.07
2023-02-17T09:20:24.522Z,4.27
2023-02-17T09:22:53.473Z,4.90
2023-02-17T09:25:21.481Z,3.87
2023-02-17T09:27:49.649Z,4.83
2023-02-17T09:30:17.809Z,4.80
2023-02-17T09:32:46.114Z,7.00
2023-02-17T09:35:18.174Z,4.97
2023-02-17T09:37:46.894Z,4.63
2023-02-17T09:40:21.868Z,4.40
2023-02-17T09:42:51.183Z,5.33
2023-02-17T09:45:27.490Z,6.60
2023-02-17T09:48:00.037Z,5.63
2023-02-17T09:50:37.750Z,9.20
2023-02-17T09:53:13.288Z,6.93
2023-02-17T09:55:47.594Z,16.63
2023-02-17T09:58:22.468Z,5.30
2023-02-17T10:00:55.727Z,9.50
2023-02-17T10:03:31.301Z,13.60
2023-02-17T10:06:11.609Z,6.50
2023-02-17T10:08:47.507Z,9.53
2023-02-17T10:11:25.965Z,5.60
2023-02-17T10:14:00.080Z,8.97
2023-02-17T10:16:35.045Z,6.90
2023-02-17T10:19:11.730Z,5.00
2023-02-17T10:21:47.166Z,3.17
2023-02-17T10:24:15.269Z,4.40
2023-02-17T10:27:22.808Z,4.00
2023-02-17T10:30:05.387Z,10.43
2023-02-17T10:32:43.276Z,4.43
2023-02-17T10:35:16.982Z,9.90
2023-02-17T10:37:50.839Z,8.60
2023-02-17T10:40:22.601Z,5.90
2023-02-17T10:42:55.539Z,4.40
2023-02-17T10:45:31.678Z,4.13
2023-02-17T10:48:05.133Z,3.30
2023-02-17T10:50:33.560Z,3.13
2023-02-17T10:53:02.964Z,3.27
2023-02-17T10:55:39.538Z,3.43
2023-02-17T10:58:16.819Z,2.30
2023-02-17T11:00:54.527Z,3.80
2023-02-17T11:03:25.287Z,3.80
2023-02-17T11:05:56.430Z,3.97
2023-02-17T11:08:38.540Z,3.53
2023-02-17T11:11:14.233Z,3.33
2023-02-17T11:13:47.474Z,3.77
2023-02-17T11:16:27.271Z,4.90
2023-02-17T11:18:56.983Z,5.30
2023-02-17T11:21:25.071Z,6.47
2023-02-17T11:23:59.294Z,6.77
2023-02-17T11:26:29.824Z,3.70
2023-02-17T11:29:10.018Z,3.30
2023-02-17T11:31:38.369Z,2.60
2023-02-17T11:34:15.182Z,2.50
2023-02-17T11:36:46.609Z,2.60
2023-02-17T11:39:22.380Z,1.73
2023-02-17T11:41:50.533Z,2.17
2023-02-17T11:44:27.935Z,2.00
2023-02-17T11:47:07.759Z,1.87
2023-02-17T11:50:01.584Z,14.80
2023-02-17T11:52:50.838Z,3.57
2023-02-17T11:55:30.561Z,2.40
2023-02-17T11:58:18.986Z,2.30
2023-02-17T12:00:55.453Z,2.50
2023-02-17T12:03:58.624Z,2.20
2023-02-17T12:06:40.210Z,2.13
2023-02-17T12:09:18.746Z,3.83
2023-02-17T12:11:59.186Z,5.07
2023-02-17T12:14:54.696Z,2.93
2023-02-17T12:17:37.063Z,3.83
2023-02-17T12:20:21.732Z,1.50
2023-02-17T12:23:04.206Z,2.13
2023-02-17T12:25:34.716Z,1.20
2023-02-17T12:28:25.973Z,1.90
2023-02-17T12:31:03.539Z,1.17
2023-02-17T12:33:49.438Z,1.40
2023-02-17T12:36:20.034Z,1.53
2023-02-17T12:38:54.544Z,1.70
2023-02-17T12:41:27.668Z,2.43
2023-02-17T12:44:02.126Z,1.70
2023-02-17T12:46:35.242Z,2.20
2023-02-17T12:49:11.545Z,1.30
2023-02-17T12:51:43.633Z,1.10
2023-02-17T12:54:19.126Z,1.17
2023-02-17T12:57:03.872Z,1.80
2023-02-17T12:59:37.044Z,1.17
2023-02-17T13:02:08.411Z,1.10
2023-02-17T13:04:37.614Z,1.80
2023-02-17T13:07:24.187Z,1.90
2023-02-17T13:09:55.414Z,1.90
2023-02-17T13:12:42.826Z,1.70
2023-02-17T13:15:34.519Z,1.23
2023-02-17T13:18:04.766Z,1.70
2023-02-17T13:20:55.025Z,0.70
2023-02-17T13:23:37.483Z,1.00
2023-02-17T13:26:27.160Z,1.43
2023-02-17T13:29:17.874Z,1.30
2023-02-17T13:31:54.077Z,1.00
2023-02-17T13:34:30.717Z,1.20
2023-02-17T13:37:01.772Z,1.13
2023-02-17T13:39:37.125Z,0.90
2023-02-17T13:42:22.384Z,1.90
2023-02-17T13:44:52.518Z,2.20
2023-02-17T13:47:31.274Z,1.93
2023-02-17T13:49:59.342Z,1.03
2023-02-17T13:52:32.958Z,2.33
2023-02-17T13:55:03.079Z,3.03
2023-02-17T13:57:34.976Z,1.40
2023-02-17T14:00:17.733Z,1.10
2023-02-17T14:02:51.466Z,1.50
2023-02-17T14:05:22.780Z,5.57
2023-02-17T14:07:51.484Z,10.17
2023-02-17T14:10:27.409Z,1.17
2023-02-17T14:12:57.080Z,1.67
2023-02-17T14:15:29.551Z,1.43
2023-02-17T14:17:58.963Z,1.80
2023-02-17T14:20:31.094Z,1.50
2023-02-17T14:23:11.553Z,1.20
2023-02-17T14:25:42.574Z,2.10
2023-02-17T14:28:21.861Z,1.50
2023-02-17T14:30:50.865Z,1.03
2023-02-17T14:33:25.948Z,1.10
2023-02-17T14:35:56.948Z,0.90
2023-02-17T14:38:31.920Z,3.47
2023-02-17T14:41:01.079Z,2.53
2023-02-17T14:43:29.395Z,8.90
2023-02-17T14:45:57.735Z,3.30
2023-02-17T14:48:28.009Z,23.60
2023-02-17T14:50:58.319Z,5.57
2023-02-17T14:53:29.330Z,16.60
2023-02-17T14:56:02.269Z,7.97
2023-02-17T14:58:31.461Z,8.47
2023-02-17T15:01:00.541Z,11.10
2023-02-17T15:03:29.969Z,17.07
2023-02-17T15:05:58.374Z,55.07
2023-02-17T15:08:33.691Z,4.40
2023-02-17T15:11:02.436Z,2.20
2023-02-17T15:13:31.673Z,1.77
2023-02-17T15:16:00.025Z,7.80
2023-02-17T15:18:29.382Z,1.60
2023-02-17T15:20:58.445Z,2.80
2023-02-17T15:23:26.944Z,2.27
2023-02-17T15:25:56.700Z,2.40
2023-02-17T15:28:24.705Z,1.20
2023-02-17T15:30:55.323Z,0.80
2023-02-17T15:33:25.500Z,0.60
2023-02-17T15:35:56.122Z,1.80
2023-02-17T15:38:27.071Z,0.60
2023-02-17T15:40:58.580Z,1.17
2023-02-17T15:46:12.967Z,0.80
2023-02-17T15:48:41.431Z,0.87
2023-02-17T15:51:19.980Z,0.93
2023-02-17T15:53:48.603Z,0.60
2023-02-17T15:56:20.629Z,1.50
2023-02-17T15:58:49.862Z,0.60
2023-02-17T16:01:28.308Z,2.03
2023-02-17T16:03:57.479Z,1.07
2023-02-17T16:06:28.423Z,0.80
2023-02-17T16:08:58.658Z,0.90
2023-02-17T16:11:29.299Z,1.37
2023-02-17T16:13:58.006Z,1.03
2023-02-17T16:16:32.326Z,0.67
2023-02-17T16:19:00.553Z,0.90
2023-02-17T16:21:30.008Z,1.10
2023-02-17T16:24:00.323Z,0.80
2023-02-17T16:26:34.163Z,1.03
2023-02-17T16:29:03.915Z,0.77
2023-02-17T16:31:35.713Z,1.07
2023-02-17T16:34:03.794Z,0.90
2023-02-17T16:36:36.698Z,1.20
2023-02-17T16:39:13.947Z,0.97
2023-02-17T16:41:42.152Z,1.50
2023-02-17T16:44:14.563Z,1.07
2023-02-17T16:46:49.884Z,2.50
2023-02-17T16:49:23.537Z,3.03
2023-02-17T16:51:53.955Z,2.47
2023-02-17T16:54:24.122Z,3.80
2023-02-17T16:56:53.488Z,1.77
2023-02-17T16:59:23.915Z,2.03
2023-02-17T17:01:53.178Z,1.60
2023-02-17T17:04:21.772Z,1.40
2023-02-17T17:06:53.147Z,0.83
2023-02-17T17:09:24.961Z,2.53
2023-02-17T17:11:53.048Z,2.63
2023-02-17T17:14:21.923Z,1.73
2023-02-17T17:16:54.790Z,1.30
2023-02-17T17:19:22.943Z,1.23
2023-02-17T17:21:52.791Z,2.77
2023-02-17T17:24:21.692Z,1.20
2023-02-17T17:26:51.870Z,5.07
2023-02-17T17:29:21.538Z,2.00
2023-02-17T17:31:50.296Z,1.20
2023-02-17T17:34:18.887Z,1.20
2023-02-17T17:36:48.819Z,2.83
2023-02-17T17:39:22.163Z,2.57
2023-02-17T17:41:51.437Z,1.40
2023-02-17T17:44:20.572Z,1.40
2023-02-17T17:46:48.793Z,1.87
2023-02-17T17:49:18.335Z,1.10
2023-02-17T17:51:46.405Z,1.37
2023-02-17T17:54:14.589Z,1.20
2023-02-17T17:56:44.132Z,1.13
2023-02-17T17:59:14.332Z,1.40
2023-02-17T18:01:45.147Z,1.53
2023-02-17T18:04:13.947Z,1.37
2023-02-17T18:06:45.525Z,1.10
2023-02-17T18:09:30.750Z,1.40
2023-02-17T18:12:05.251Z,1.37
2023-02-17T18:14:33.699Z,1.87
2023-02-17T18:17:01.901Z,1.47
2023-02-17T18:19:31.563Z,8.97
2023-02-17T18:21:59.624Z,1.43
2023-02-17T18:24:28.138Z,2.83
2023-02-17T18:26:56.108Z,6.97
2023-02-17T18:29:25.615Z,2.70
2023-02-17T18:31:53.756Z,3.03
2023-02-17T18:34:21.824Z,15.57
2023-02-17T18:36:49.865Z,3.50
2023-02-17T18:39:17.936Z,2.37
2023-02-17T18:41:45.975Z,2.80
2023-02-17T18:44:14.003Z,3.10
2023-02-17T18:46:45.380Z,1.93
2023-02-17T18:49:13.424Z,2.20
2023-02-17T18:51:41.507Z,2.67
2023-02-17T18:54:10.991Z,1.53
2023-02-17T18:56:39.403Z,2.40
2023-02-17T18:59:07.713Z,2.00
2023-02-17T19:01:39.457Z,2.63
2023-02-17T19:04:11.770Z,2.20
2023-02-17T19:06:40.937Z,2.40
2023-02-17T19:09:09.457Z,2.53
2023-02-17T19:11:37.562Z,2.47
2023-02-17T19:14:05.723Z,2.27
2023-02-17T19:16:34.156Z,2.50
2023-02-17T19:19:02.663Z,3.37
2023-02-17T19:21:32.119Z,2.50
2023-02-17T19:24:00.859Z,4.70
2023-02-17T19:26:29.063Z,3.03
2023-02-17T19:28:57.155Z,3.20
2023-02-17T19:31:25.329Z,2.83
2023-02-17T19:33:53.530Z,3.03
2023-02-17T19:36:23.970Z,2.90
2023-02-17T19:38:53.450Z,3.80
2023-02-17T19:41:21.625Z,4.00
2023-02-17T19:43:51.363Z,3.40
2023-02-17T19:46:22.773Z,2.93
2023-02-17T19:48:51.147Z,2.80
2023-02-17T19:51:22.218Z,3.90
2023-02-17T19:53:50.487Z,3.60
2023-02-17T19:56:22.875Z,3.70
2023-02-17T19:58:52.066Z,4.07
2023-02-17T20:01:23.144Z,3.50
2023-02-17T20:03:51.689Z,3.00
2023-02-17T20:06:22.931Z,2.93
2023-02-17T20:08:56.755Z,4.40
2023-02-17T20:11:26.865Z,4.17
2023-02-17T20:13:55.130Z,3.70
2023-02-17T20:16:23.333Z,3.43
2023-02-17T20:18:52.415Z,3.83
2023-02-17T20:21:23.998Z,3.83
2023-02-17T20:23:52.802Z,3.70
2023-02-17T20:26:25.290Z,4.17
2023-02-17T20:28:58.752Z,3.80
2023-02-17T20:31:27.919Z,4.13
2023-02-17T20:33:56.553Z,3.30
2023-02-17T20:36:25.073Z,3.90
2023-02-17T20:38:53.428Z,3.47
2023-02-17T20:41:23.371Z,3.20
2023-02-17T20:43:52.546Z,3.40
2023-02-17T20:46:26.385Z,3.50
2023-02-17T20:48:55.275Z,4.43
2023-02-17T20:51:24.001Z,3.27
2023-02-17T20:53:52.449Z,3.07
2023-02-17T20:56:24.381Z,3.50
2023-02-17T20:58:53.776Z,3.80
2023-02-17T21:01:23.407Z,3.60
2023-02-17T21:03:51.516Z,3.60
2023-02-17T21:06:23.391Z,3.83
2023-02-17T21:08:53.950Z,3.30
2023-02-17T21:11:22.364Z,3.00
2023-02-17T21:13:51.151Z,3.57
2023-02-17T21:16:25.472Z,4.00
2023-02-17T21:18:53.930Z,4.37
2023-02-17T21:21:22.771Z,4.10
2023-02-17T21:23:51.126Z,4.80
2023-02-17T21:26:19.191Z,4.20
2023-02-17T21:28:49.248Z,3.63
2023-02-17T21:31:18.507Z,3.50
2023-02-17T21:33:47.977Z,2.50
2023-02-17T21:36:19.605Z,3.20
2023-02-17T21:38:48.674Z,3.33
2023-02-17T21:41:19.054Z,3.30
2023-02-17T21:44:06.026Z,3.87
2023-02-17T21:46:34.988Z,3.03
2023-02-17T21:49:04.898Z,3.13
2023-02-17T21:51:32.952Z,3.77
2023-02-17T21:54:00.971Z,3.40
2023-02-17T21:56:29.113Z,4.20
2023-02-17T21:58:57.947Z,4.10
2023-02-17T22:01:28.494Z,2.80
2023-02-17T22:03:57.656Z,3.00
2023-02-17T22:06:29.893Z,2.83
2023-02-17T22:08:58.936Z,2.93
2023-02-17T22:11:30.966Z,3.23
2023-02-17T22:14:01.894Z,3.30
2023-02-17T22:16:33.119Z,3.43
2023-02-17T22:19:01.774Z,3.20
2023-02-17T22:21:31.266Z,3.47
2023-02-17T22:23:59.801Z,3.20
2023-02-17T22:26:28.730Z,2.60
2023-02-17T22:28:57.177Z,3.13
2023-02-17T22:31:28.289Z,3.37
2023-02-17T22:33:58.591Z,3.10
2023-02-17T22:36:27.381Z,3.23
2023-02-17T22:38:56.800Z,2.87
2023-02-17T22:41:26.567Z,3.00
2023-02-17T22:43:55.783Z,3.50
2023-02-17T22:46:27.112Z,2.83
2023-02-17T22:48:57.771Z,2.83
2023-02-17T22:51:28.188Z,2.30
2023-02-17T22:53:57.815Z,3.37
2023-02-17T22:56:25.981Z,2.43
2023-02-17T22:58:56.344Z,3.70
2023-02-17T23:01:25.281Z,2.27
2023-02-17T23:03:55.034Z,3.00
2023-02-17T23:06:29.245Z,2.50
2023-02-17T23:08:59.560Z,2.73
2023-02-17T23:11:49.430Z,1.93
2023-02-17T23:14:20.671Z,2.47
2023-02-17T23:16:49.538Z,2.30
2023-02-17T23:19:20.678Z,2.40
2023-02-17T23:21:51.737Z,2.17
2023-02-17T23:24:23.341Z,2.30
2023-02-17T23:26:51.892Z,2.20
2023-02-17T23:29:20.209Z,2.30
2023-02-17T23:31:48.415Z,2.40
2023-02-17T23:34:17.356Z,1.93
2023-02-17T23:36:47.513Z,2.00
2023-02-17T23:39:16.932Z,2.30
2023-02-17T23:41:46.453Z,2.97
2023-02-17T23:44:17.707Z,2.57
2023-02-17T23:46:46.997Z,2.33
2023-02-17T23:49:16.493Z,1.73
2023-02-17T23:51:44.912Z,1.80
2023-02-17T23:54:13.026Z,1.70
2023-02-17T23:56:41.241Z,1.90
2023-02-17T23:59:10.883Z,1.90
